createdAt,value
2023-04-16T00:01:23.409Z,9.05
2023-04-16T00:03:50.042Z,10.65
2023-04-16T00:06:16.738Z,7.30
2023-04-16T00:08:43.637Z,7.72
2023-04-16T00:11:10.485Z,10.70
2023-04-16T00:13:37.261Z,9.98
2023-04-16T00:16:03.791Z,11.25
2023-04-16T00:18:30.844Z,9.65
2023-04-16T00:20:57.286Z,8.10
2023-04-16T00:23:25.359Z,9.20
2023-04-16T00:25:52.226Z,8.20
2023-04-16T00:28:18.654Z,8.65
2023-04-16T00:30:45.201Z,8.00
2023-04-16T00:33:11.659Z,9.63
2023-04-16T00:35:38.213Z,10.85
2023-04-16T00:38:04.721Z,12.90
2023-04-16T00:40:31.391Z,10.80
2023-04-16T00:42:57.911Z,11.38
2023-04-16T00:45:24.376Z,9.77
2023-04-16T00:47:50.905Z,10.30
2023-04-16T00:50:17.697Z,11.80
2023-04-16T00:52:47.046Z,11.20
2023-04-16T00:55:13.819Z,15.20
2023-04-16T00:57:40.300Z,12.70
2023-04-16T01:00:07.429Z,15.20
2023-04-16T01:02:34.266Z,12.88
2023-04-16T01:05:02.055Z,15.18
2023-04-16T01:07:28.749Z,13.27
2023-04-16T01:09:55.361Z,16.35
2023-04-16T01:12:21.936Z,12.48
2023-04-16T01:14:48.734Z,14.82
2023-04-16T01:17:15.335Z,14.57
2023-04-16T01:19:42.511Z,11.48
2023-04-16T01:22:08.997Z,13.82
2023-04-16T01:24:36.398Z,12.57
2023-04-16T01:27:03.002Z,12.70
2023-04-16T01:29:29.495Z,12.82
2023-04-16T01:31:56.199Z,14.27
2023-04-16T01:34:23.170Z,10.90
2023-04-16T01:36:49.675Z,18.05
2023-04-16T01:39:16.548Z,12.73
2023-04-16T01:41:43.719Z,14.35
2023-04-16T01:44:10.500Z,11.80
2023-04-16T01:46:38.176Z,13.30
2023-04-16T01:49:05.860Z,16.30
2023-04-16T01:51:32.425Z,12.90
2023-04-16T01:53:59.201Z,10.50
2023-04-16T01:56:25.871Z,16.50
2023-04-16T01:58:52.933Z,14.25
2023-04-16T02:01:19.553Z,19.38
2023-04-16T02:03:46.541Z,17.35
2023-04-16T02:06:13.073Z,17.38
2023-04-16T02:08:39.620Z,15.75
2023-04-16T02:11:06.113Z,19.85
2023-04-16T02:13:32.615Z,17.65
2023-04-16T02:15:59.338Z,17.83
2023-04-16T02:18:25.873Z,15.23
2023-04-16T02:20:52.309Z,16.63
2023-04-16T02:23:18.741Z,14.30
2023-04-16T02:25:46.643Z,16.40
2023-04-16T02:28:15.456Z,20.10
2023-04-16T02:30:42.533Z,17.20
2023-04-16T02:33:11.410Z,24.83
2023-04-16T02:35:39.418Z,19.40
2023-04-16T02:38:06.479Z,19.08
2023-04-16T02:40:33.196Z,19.58
2023-04-16T02:42:59.625Z,21.67
2023-04-16T02:45:26.053Z,23.48
2023-04-16T02:47:52.528Z,17.95
2023-04-16T02:50:19.182Z,22.95
2023-04-16T02:52:45.867Z,20.73
2023-04-16T02:55:12.390Z,20.27
2023-04-16T02:57:38.876Z,17.90
2023-04-16T03:00:06.058Z,17.38
2023-04-16T03:02:32.716Z,20.08
2023-04-16T03:04:59.413Z,19.85
2023-04-16T03:07:26.198Z,19.55
2023-04-16T03:09:52.787Z,19.77
2023-04-16T03:12:19.244Z,25.00
2023-04-16T03:14:45.714Z,22.67
2023-04-16T03:17:12.212Z,24.73
2023-04-16T03:19:38.700Z,23.80
2023-04-16T03:22:05.392Z,24.50
2023-04-16T03:24:32.293Z,25.35
2023-04-16T03:26:58.932Z,23.38
2023-04-16T03:29:26.724Z,19.80
2023-04-16T03:31:53.464Z,22.85
2023-04-16T03:34:20.059Z,21.30
2023-04-16T03:36:46.511Z,23.15
2023-04-16T03:39:13.025Z,19.50
2023-04-16T03:41:39.440Z,19.80
2023-04-16T03:44:05.947Z,18.98
2023-04-16T03:46:32.375Z,20.95
2023-04-16T03:48:58.868Z,19.40
2023-04-16T03:51:26.228Z,17.52
2023-04-16T03:53:52.763Z,19.60
2023-04-16T03:56:19.313Z,17.58
2023-04-16T03:58:45.812Z,18.05
2023-04-16T04:01:12.268Z,21.38
2023-04-16T04:03:38.878Z,17.63
2023-04-16T04:06:09.045Z,19.63
2023-04-16T04:08:35.613Z,22.50
2023-04-16T04:11:02.043Z,23.85
2023-04-16T04:13:28.616Z,19.08
2023-04-16T04:15:55.191Z,22.25
2023-04-16T04:18:21.733Z,21.52
2023-04-16T04:20:48.190Z,21.52
2023-04-16T04:23:14.695Z,20.42
2023-04-16T04:25:41.111Z,23.50
2023-04-16T04:28:07.568Z,21.73
2023-04-16T04:30:35.703Z,19.73
2023-04-16T04:33:02.300Z,22.30
2023-04-16T04:35:28.859Z,18.80
2023-04-16T04:37:55.721Z,18.58
2023-04-16T04:40:22.371Z,19.75
2023-04-16T04:42:48.938Z,22.20
2023-04-16T04:45:15.667Z,19.65
2023-04-16T04:47:42.200Z,19.60
2023-04-16T04:50:09.177Z,19.65
2023-04-16T04:52:35.935Z,23.83
2023-04-16T04:55:02.445Z,25.38
2023-04-16T04:57:28.939Z,24.13
2023-04-16T04:59:55.445Z,26.15
2023-04-16T05:02:21.978Z,23.25
2023-04-16T05:04:48.571Z,20.92
2023-04-16T05:07:16.245Z,22.08
2023-04-16T05:09:42.706Z,27.20
2023-04-16T05:12:09.198Z,21.45
2023-04-16T05:14:36.315Z,22.95
2023-04-16T05:17:02.948Z,20.25
2023-04-16T05:19:29.691Z,22.33
2023-04-16T05:21:56.273Z,20.98
2023-04-16T05:24:23.101Z,25.27
2023-04-16T05:26:49.553Z,20.52
2023-04-16T05:29:16.007Z,22.73
2023-04-16T05:31:42.562Z,20.80
2023-04-16T05:34:09.003Z,23.58
2023-04-16T05:36:35.463Z,27.73
2023-04-16T05:39:03.166Z,21.80
2023-04-16T05:41:29.701Z,22.27
2023-04-16T05:43:56.226Z,18.38
2023-04-16T05:46:22.821Z,19.52
2023-04-16T05:48:49.319Z,18.02
2023-04-16T05:51:15.935Z,24.02
2023-04-16T05:53:42.685Z,22.88
2023-04-16T05:56:09.290Z,22.67
2023-04-16T05:58:35.774Z,19.75
2023-04-16T06:01:02.330Z,23.42
2023-04-16T06:03:28.943Z,21.73
2023-04-16T06:05:55.558Z,24.88
2023-04-16T06:08:22.166Z,21.35
2023-04-16T06:10:49.117Z,21.90
2023-04-16T06:13:15.704Z,19.20
2023-04-16T06:15:42.341Z,26.50
2023-04-16T06:18:09.097Z,23.38
2023-04-16T06:20:36.422Z,20.08
2023-04-16T06:23:02.885Z,21.20
2023-04-16T06:25:29.415Z,18.58
2023-04-16T06:27:55.907Z,20.55
2023-04-16T06:30:22.337Z,25.00
2023-04-16T06:32:49.475Z,25.15
2023-04-16T06:35:16.158Z,22.27
2023-04-16T06:37:42.602Z,23.23
2023-04-16T06:40:09.521Z,24.27
2023-04-16T06:42:36.163Z,21.92
2023-04-16T06:45:02.728Z,20.83
2023-04-16T06:47:29.192Z,21.13
2023-04-16T06:49:55.642Z,24.98
2023-04-16T06:52:22.175Z,25.70
2023-04-16T06:54:48.669Z,22.38
2023-04-16T06:57:16.108Z,28.23
2023-04-16T06:59:42.825Z,24.33
2023-04-16T07:02:10.835Z,23.10
2023-04-16T07:04:37.478Z,25.67
2023-04-16T07:07:03.992Z,24.20
2023-04-16T07:09:30.523Z,28.48
2023-04-16T07:11:57.036Z,25.35
2023-04-16T07:14:23.508Z,25.17
2023-04-16T07:16:50.296Z,26.77
2023-04-16T07:19:16.803Z,26.48
2023-04-16T07:21:43.796Z,24.77
2023-04-16T07:24:11.685Z,29.05
2023-04-16T07:26:38.171Z,25.00
2023-04-16T07:29:04.762Z,24.23
2023-04-16T07:31:31.492Z,23.75
2023-04-16T07:33:58.655Z,25.52
2023-04-16T07:36:25.653Z,26.25
2023-04-16T07:38:52.058Z,25.17
2023-04-16T07:41:18.557Z,24.08
2023-04-16T07:43:44.961Z,22.20
2023-04-16T07:46:11.487Z,22.60
2023-04-16T07:48:37.924Z,22.00
2023-04-16T07:51:04.477Z,24.55
2023-04-16T07:53:30.963Z,22.38
2023-04-16T07:55:57.358Z,22.05
2023-04-16T07:58:23.752Z,24.40
2023-04-16T08:00:51.031Z,22.70
2023-04-16T08:03:18.485Z,22.45
2023-04-16T08:05:45.129Z,24.13
2023-04-16T08:08:11.664Z,25.13
2023-04-16T08:10:39.131Z,22.02
2023-04-16T08:13:05.916Z,21.13
2023-04-16T08:15:32.500Z,21.52
2023-04-16T08:17:59.682Z,20.65
2023-04-16T08:20:26.313Z,20.75
2023-04-16T08:22:54.333Z,18.40
2023-04-16T08:25:21.182Z,18.48
2023-04-16T08:27:47.775Z,18.30
2023-04-16T08:30:15.201Z,15.07
2023-04-16T08:32:41.725Z,14.23
2023-04-16T08:35:08.753Z,17.27
2023-04-16T08:37:35.399Z,17.00
2023-04-16T08:40:02.481Z,17.10
2023-04-16T08:42:34.382Z,14.68
2023-04-16T08:45:21.275Z,15.43
2023-04-16T08:47:49.999Z,16.00
2023-04-16T08:50:18.335Z,13.60
2023-04-16T08:52:58.786Z,13.32
2023-04-16T08:58:08.252Z,13.88
2023-04-16T09:00:37.546Z,12.90
2023-04-16T09:03:04.594Z,13.27
2023-04-16T09:05:33.184Z,13.52
2023-04-16T09:07:59.739Z,15.95
2023-04-16T09:10:27.028Z,13.02
2023-04-16T09:12:57.260Z,12.18
2023-04-16T09:15:25.571Z,13.88
2023-04-16T09:17:52.888Z,12.95
2023-04-16T09:20:20.730Z,14.10
2023-04-16T09:22:47.230Z,13.93
2023-04-16T09:25:14.818Z,12.85
2023-04-16T09:27:41.367Z,12.30
2023-04-16T09:30:21.940Z,12.48
2023-04-16T09:35:15.840Z,13.38
2023-04-16T09:37:42.432Z,12.63
2023-04-16T09:40:09.639Z,11.10
2023-04-16T09:42:39.662Z,10.70
2023-04-16T09:45:06.791Z,14.55
2023-04-16T09:47:44.140Z,13.50
2023-04-16T09:50:17.773Z,13.18
2023-04-16T09:52:48.568Z,12.90
2023-04-16T09:55:15.418Z,15.55
2023-04-16T09:57:42.000Z,14.90
2023-04-16T10:00:10.142Z,14.18
2023-04-16T10:02:41.742Z,14.10
2023-04-16T10:05:09.051Z,14.57
2023-04-16T10:07:36.908Z,16.58
2023-04-16T10:10:04.885Z,17.20
2023-04-16T10:12:32.790Z,15.63
2023-04-16T10:14:59.339Z,16.23
2023-04-16T10:17:27.270Z,20.65
2023-04-16T10:19:54.627Z,19.42
2023-04-16T10:22:21.351Z,20.55
2023-04-16T10:24:48.779Z,38.35
2023-04-16T10:27:16.615Z,25.45
2023-04-16T10:29:44.099Z,28.38
2023-04-16T10:32:11.002Z,24.42
2023-04-16T10:34:37.607Z,20.95
2023-04-16T10:37:04.077Z,21.80
2023-04-16T10:39:30.745Z,22.92
2023-04-16T10:42:13.465Z,21.15
2023-04-16T10:44:44.353Z,29.55
2023-04-16T10:47:13.272Z,22.25
2023-04-16T10:49:41.049Z,28.70
2023-04-16T10:52:11.428Z,22.30
2023-04-16T10:54:39.169Z,32.90
2023-04-16T10:57:12.249Z,26.98
2023-04-16T10:59:39.745Z,25.23
2023-04-16T11:02:15.618Z,21.15
2023-04-16T11:04:44.899Z,22.77
2023-04-16T11:07:11.680Z,21.83
2023-04-16T11:09:50.497Z,19.52
2023-04-16T11:12:22.552Z,18.73
2023-04-16T11:14:53.118Z,19.75
2023-04-16T11:17:21.532Z,18.88
2023-04-16T11:19:48.343Z,18.83
2023-04-16T11:22:17.337Z,19.65
2023-04-16T11:24:46.005Z,22.48
2023-04-16T11:27:15.967Z,20.40
2023-04-16T11:29:43.540Z,24.02
2023-04-16T11:32:21.095Z,29.23
2023-04-16T11:34:47.645Z,23.95
2023-04-16T11:37:14.208Z,33.53
2023-04-16T11:39:51.356Z,23.90
2023-04-16T11:42:23.726Z,37.00
2023-04-16T11:44:55.110Z,30.77
2023-04-16T11:47:23.075Z,29.02
2023-04-16T11:49:50.025Z,22.08
2023-04-16T11:52:30.035Z,31.17
2023-04-16T11:54:57.676Z,22.45
2023-04-16T11:57:31.741Z,27.08
2023-04-16T12:00:02.407Z,24.02
2023-04-16T12:02:36.509Z,28.20
2023-04-16T12:05:04.498Z,26.50
2023-04-16T12:07:31.103Z,27.73
2023-04-16T12:10:08.006Z,23.88
2023-04-16T12:12:35.378Z,24.48
2023-04-16T12:15:05.063Z,27.85
2023-04-16T12:17:33.559Z,24.40
2023-04-16T12:20:03.748Z,20.48
2023-04-16T12:22:36.742Z,25.10
2023-04-16T12:25:06.079Z,25.23
2023-04-16T12:27:54.082Z,22.60
2023-04-16T12:30:23.317Z,25.50
2023-04-16T12:32:52.487Z,24.55
2023-04-16T12:35:34.985Z,26.05
2023-04-16T12:38:01.586Z,22.80
2023-04-16T12:40:28.242Z,24.25
2023-04-16T12:42:55.109Z,21.20
2023-04-16T12:45:22.036Z,19.60
2023-04-16T12:47:48.645Z,21.75
2023-04-16T12:50:15.265Z,19.25
2023-04-16T12:52:41.817Z,21.48
2023-04-16T12:55:08.686Z,22.48
2023-04-16T12:57:35.389Z,20.55
2023-04-16T13:00:01.943Z,21.13
2023-04-16T13:02:29.576Z,22.15
2023-04-16T13:04:56.257Z,19.83
2023-04-16T13:07:22.804Z,23.10
2023-04-16T13:09:49.231Z,18.52
2023-04-16T13:12:15.778Z,21.45
2023-04-16T13:14:44.623Z,20.58
2023-04-16T13:17:11.544Z,23.55
2023-04-16T13:19:38.005Z,22.17
2023-04-16T13:22:04.472Z,24.20
2023-04-16T13:24:30.972Z,23.90
2023-04-16T13:26:57.533Z,23.45
2023-04-16T13:29:24.067Z,26.73
2023-04-16T13:31:50.700Z,24.08
2023-04-16T13:34:17.202Z,24.65
2023-04-16T13:36:43.696Z,23.17
2023-04-16T13:39:12.847Z,25.65
2023-04-16T13:41:40.349Z,23.08
2023-04-16T13:44:07.269Z,23.05
2023-04-16T13:46:34.192Z,22.23
2023-04-16T13:49:01.262Z,20.80
2023-04-16T13:51:27.851Z,18.63
2023-04-16T13:53:55.934Z,20.15
2023-04-16T13:56:22.544Z,20.08
2023-04-16T13:58:49.340Z,20.02
2023-04-16T14:01:17.315Z,21.27
2023-04-16T14:03:44.323Z,18.63
2023-04-16T14:06:11.057Z,17.83
2023-04-16T14:08:38.222Z,21.70
2023-04-16T14:11:06.416Z,19.83
2023-04-16T14:13:33.000Z,18.35
2023-04-16T14:15:59.600Z,19.48
2023-04-16T14:18:26.132Z,18.55
2023-04-16T14:20:52.588Z,18.15
2023-04-16T14:23:19.071Z,17.65
2023-04-16T14:25:45.568Z,14.80
2023-04-16T14:28:13.650Z,20.15
2023-04-16T14:30:41.970Z,18.95
2023-04-16T14:33:08.521Z,18.55
2023-04-16T14:35:36.026Z,18.77
2023-04-16T14:38:02.732Z,21.33
2023-04-16T14:40:29.302Z,18.42
2023-04-16T14:42:55.795Z,18.55
2023-04-16T14:45:22.708Z,18.17
2023-04-16T14:47:50.593Z,20.05
2023-04-16T14:50:17.074Z,18.80
2023-04-16T14:52:43.508Z,22.25
2023-04-16T14:55:10.019Z,22.50
2023-04-16T14:57:36.577Z,23.40
2023-04-16T15:00:07.513Z,20.70
2023-04-16T15:02:35.210Z,18.88
2023-04-16T15:05:01.996Z,17.20
2023-04-16T15:07:28.545Z,18.70
2023-04-16T15:09:55.481Z,19.45
2023-04-16T15:12:21.951Z,19.70
2023-04-16T15:14:48.372Z,18.20
2023-04-16T15:17:14.768Z,18.63
2023-04-16T15:19:41.306Z,20.00
2023-04-16T15:22:07.787Z,17.95
2023-04-16T15:24:34.190Z,17.27
2023-04-16T15:27:02.309Z,19.17
2023-04-16T15:29:28.953Z,17.88
2023-04-16T15:31:55.535Z,16.02
2023-04-16T15:34:22.078Z,16.67
2023-04-16T15:36:48.446Z,15.63
2023-04-16T15:39:14.919Z,20.10
2023-04-16T15:41:53.643Z,20.02
2023-04-16T15:44:26.802Z,20.60
2023-04-16T15:46:53.209Z,19.95
2023-04-16T15:49:19.661Z,21.90
2023-04-16T15:51:46.234Z,18.23
2023-04-16T15:54:12.784Z,20.77
2023-04-16T15:56:39.675Z,23.67
2023-04-16T15:59:06.433Z,20.35
2023-04-16T16:01:32.930Z,22.13
2023-04-16T16:03:59.745Z,17.35
2023-04-16T16:06:27.149Z,20.10
2023-04-16T16:08:54.561Z,19.25
2023-04-16T16:11:21.838Z,21.17
2023-04-16T16:13:48.389Z,23.45
2023-04-16T16:16:15.412Z,21.08
2023-04-16T16:18:42.306Z,22.15
2023-04-16T16:21:08.855Z,20.08
2023-04-16T16:23:35.354Z,20.52
2023-04-16T16:26:01.812Z,23.27
2023-04-16T16:28:28.272Z,25.77
2023-04-16T16:30:55.489Z,26.40
2023-04-16T16:33:22.365Z,24.17
2023-04-16T16:35:48.880Z,27.33
2023-04-16T16:38:15.545Z,22.52
2023-04-16T16:40:42.057Z,21.90
2023-04-16T16:43:08.536Z,26.35
2023-04-16T16:45:35.049Z,26.65
2023-04-16T16:48:03.486Z,22.00
2023-04-16T16:50:33.125Z,22.27
2023-04-16T16:53:00.198Z,21.85
2023-04-16T16:55:26.930Z,22.20
2023-04-16T16:57:53.454Z,21.10
2023-04-16T17:00:21.509Z,24.33
2023-04-16T17:02:51.119Z,25.25
2023-04-16T17:05:17.948Z,22.02
2023-04-16T17:07:44.774Z,22.63
2023-04-16T17:10:13.386Z,21.65
2023-04-16T17:15:06.731Z,19.27
2023-04-16T17:17:33.361Z,22.27
2023-04-16T17:20:01.048Z,20.05
2023-04-16T17:22:27.618Z,24.42
2023-04-16T17:24:54.387Z,24.95
2023-04-16T17:27:20.957Z,25.55
2023-04-16T17:29:47.376Z,20.73
2023-04-16T17:32:13.927Z,25.00
2023-04-16T17:34:40.815Z,24.33
2023-04-16T17:37:07.274Z,23.52
2023-04-16T17:39:33.709Z,26.45
2023-04-16T17:42:02.963Z,25.77
2023-04-16T17:44:29.393Z,23.90
2023-04-16T17:46:56.867Z,22.83
2023-04-16T17:49:23.341Z,24.02
2023-04-16T17:51:49.864Z,22.38
2023-04-16T17:54:16.264Z,23.08
2023-04-16T17:56:42.725Z,22.98
2023-04-16T17:59:09.142Z,22.95
2023-04-16T18:01:35.722Z,31.55
2023-04-16T18:04:02.455Z,34.63
2023-04-16T18:06:29.130Z,23.73
2023-04-16T18:08:55.560Z,26.40
2023-04-16T18:11:22.222Z,26.10
2023-04-16T18:13:48.720Z,25.20
2023-04-16T18:16:16.755Z,24.40
2023-04-16T18:18:44.249Z,26.83
2023-04-16T18:21:10.901Z,29.80
2023-04-16T18:23:37.545Z,27.63
2023-04-16T18:26:04.235Z,30.23
2023-04-16T18:28:30.643Z,27.33
2023-04-16T18:30:59.007Z,30.27
2023-04-16T18:33:52.613Z,33.22
2023-04-16T18:36:14.591Z,30.98
2023-04-16T18:38:52.936Z,32.88
2023-04-16T18:41:26.282Z,28.77
2023-04-16T18:43:52.759Z,28.60
2023-04-16T18:46:19.217Z,30.92
2023-04-16T18:48:45.818Z,30.52
2023-04-16T18:51:14.187Z,31.48
2023-04-16T18:53:44.143Z,30.27
2023-04-16T18:56:11.114Z,29.02
2023-04-16T18:58:37.913Z,30.63
2023-04-16T19:01:04.889Z,29.52
2023-04-16T19:03:32.193Z,34.45
2023-04-16T19:05:58.813Z,33.40
2023-04-16T19:08:25.307Z,33.15
2023-04-16T19:10:51.863Z,32.42
2023-04-16T19:13:18.552Z,32.67
2023-04-16T19:15:45.352Z,31.90
2023-04-16T19:18:11.818Z,29.95
2023-04-16T19:20:38.482Z,30.13
2023-04-16T19:23:05.765Z,31.10
2023-04-16T19:25:32.512Z,30.80
2023-04-16T19:27:58.942Z,30.05
2023-04-16T19:30:26.458Z,28.88
2023-04-16T19:32:55.180Z,28.70
2023-04-16T19:35:22.294Z,31.75
2023-04-16T19:37:49.039Z,31.65
2023-04-16T19:40:15.502Z,30.42
2023-04-16T19:42:42.013Z,31.35
2023-04-16T19:45:08.716Z,31.48
2023-04-16T19:47:35.562Z,40.08
2023-04-16T19:50:02.207Z,37.00
2023-04-16T19:52:28.776Z,28.42
2023-04-16T19:54:55.196Z,32.72
2023-04-16T19:57:21.620Z,35.60
2023-04-16T19:59:48.027Z,34.33
2023-04-16T20:02:14.475Z,34.25
2023-04-16T20:04:41.016Z,34.42
2023-04-16T20:07:07.465Z,34.67
2023-04-16T20:09:33.898Z,32.95
2023-04-16T20:12:00.774Z,30.20
2023-04-16T20:14:27.347Z,29.10
2023-04-16T20:16:53.885Z,30.90
2023-04-16T20:19:20.446Z,33.47
2023-04-16T20:21:46.926Z,28.13
2023-04-16T20:24:15.347Z,31.73
2023-04-16T20:26:41.964Z,32.72
2023-04-16T20:29:10.280Z,31.80
2023-04-16T20:31:36.968Z,31.50
2023-04-16T20:34:03.869Z,30.48
2023-04-16T20:36:30.433Z,32.60
2023-04-16T20:38:56.945Z,30.30
2023-04-16T20:41:25.183Z,32.65
2023-04-16T20:43:52.742Z,34.40
2023-04-16T20:46:23.870Z,72.00
2023-04-16T20:48:51.781Z,33.90
2023-04-16T20:51:18.224Z,34.72
2023-04-16T20:53:44.819Z,36.35
2023-04-16T20:56:14.693Z,35.45
2023-04-16T20:58:42.660Z,34.33
2023-04-16T21:01:09.312Z,33.30
2023-04-16T21:03:36.562Z,34.50
2023-04-16T21:06:03.838Z,33.50
2023-04-16T21:08:30.326Z,34.97
2023-04-16T21:10:56.815Z,33.70
2023-04-16T21:13:23.398Z,32.50
2023-04-16T21:15:49.970Z,35.38
2023-04-16T21:18:18.529Z,32.53
2023-04-16T21:20:45.160Z,29.58
2023-04-16T21:23:11.702Z,30.92
2023-04-16T21:25:38.122Z,31.77
2023-04-16T21:28:05.006Z,32.60
2023-04-16T21:30:31.569Z,32.80
2023-04-16T21:32:58.139Z,32.72
2023-04-16T21:35:24.621Z,33.25
2023-04-16T21:37:51.214Z,37.30
2023-04-16T21:40:17.810Z,31.15
2023-04-16T21:42:44.608Z,32.00
2023-04-16T21:45:11.376Z,31.80
2023-04-16T21:47:38.352Z,32.40
2023-04-16T21:50:05.808Z,29.98
2023-04-16T21:52:32.935Z,29.45
2023-04-16T21:55:00.296Z,34.45
2023-04-16T21:57:26.953Z,31.58
2023-04-16T21:59:53.520Z,33.88
2023-04-16T22:02:20.129Z,34.00
2023-04-16T22:04:46.839Z,32.15
2023-04-16T22:07:13.356Z,33.00
2023-04-16T22:09:40.720Z,31.48
2023-04-16T22:12:10.136Z,31.75
2023-04-16T22:14:39.221Z,34.83
2023-04-16T22:17:09.395Z,33.03
2023-04-16T22:19:37.203Z,38.08
2023-04-16T22:22:03.673Z,37.42
2023-04-16T22:24:30.210Z,33.40
2023-04-16T22:26:57.041Z,34.88
2023-04-16T22:29:23.463Z,38.22
2023-04-16T22:31:50.016Z,38.47
2023-04-16T22:34:16.666Z,38.08
2023-04-16T22:36:43.090Z,38.22
2023-04-16T22:39:10.033Z,36.83
2023-04-16T22:41:37.483Z,32.95
2023-04-16T22:44:04.059Z,41.00
2023-04-16T22:46:31.064Z,40.08
2023-04-16T22:48:57.867Z,40.00
2023-04-16T22:51:24.557Z,38.13
2023-04-16T22:53:51.887Z,38.85
2023-04-16T22:56:21.772Z,32.80
2023-04-16T22:58:51.096Z,31.30
2023-04-16T23:01:17.718Z,33.55
2023-04-16T23:03:44.274Z,36.65
2023-04-16T23:06:10.825Z,37.83
2023-04-16T23:08:37.395Z,37.08
2023-04-16T23:11:03.936Z,35.80
2023-04-16T23:13:30.437Z,40.17
2023-04-16T23:15:57.298Z,42.28
2023-04-16T23:18:23.894Z,38.97
2023-04-16T23:20:51.943Z,39.25
2023-04-16T23:23:18.716Z,42.95
2023-04-16T23:25:45.280Z,38.70
2023-04-16T23:28:11.754Z,35.33
2023-04-16T23:30:38.243Z,43.33
2023-04-16T23:33:04.863Z,40.92
2023-04-16T23:35:31.356Z,42.47
2023-04-16T23:37:57.818Z,42.85
2023-04-16T23:40:24.413Z,38.90
2023-04-16T23:42:50.887Z,37.53
2023-04-16T23:45:17.437Z,36.22
2023-04-16T23:47:44.797Z,36.38
2023-04-16T23:50:11.514Z,39.08
2023-04-16T23:52:37.996Z,39.08
2023-04-16T23:55:04.928Z,38.95
2023-04-16T23:57:31.400Z,41.28
2023-04-16T23:59:57.861Z,41.55
